Time;durP1;ratioP1;P1;durP2;ratioP2;P2;SDS_P1;SDS_P2;PMS_P1;PMS_P2;Temp;Humidity;BMP_temperature;BMP_pressure;BME280_temperature;BME280_humidity;BME280_pressure;Samples;Min_cycle;Max_cycle;Signal;HPM_P1;HPM_P2
2023/08/01 00:02:06;;;;;;;3.40;2.90;;;18.90;99.90;;;;;;4987387;28;20232;-71
2023/08/01 00:04:32;;;;;;;4.40;2.87;;;18.90;99.90;;;;;;4996522;28;20351;-70
2023/08/01 00:06:57;;;;;;;4.37;2.90;;;18.90;99.90;;;;;;4998527;28;20314;-70
2023/08/01 00:09:23;;;;;;;5.17;3.33;;;18.90;99.90;;;;;;4997848;28;21690;-70
2023/08/01 00:11:49;;;;;;;7.60;3.20;;;18.80;99.90;;;;;;4996934;28;20316;-71
2023/08/01 00:14:14;;;;;;;3.00;2.80;;;18.70;99.90;;;;;;4994193;28;20687;-71
2023/08/01 00:16:40;;;;;;;4.27;2.80;;;18.50;99.90;;;;;;4998959;28;20224;-70
2023/08/01 00:19:06;;;;;;;2.80;2.60;;;18.60;99.90;;;;;;4998889;28;20677;-71
2023/08/01 00:21:31;;;;;;;4.27;3.27;;;18.70;99.90;;;;;;4999429;28;20243;-71
2023/08/01 00:23:57;;;;;;;3.83;2.63;;;18.80;99.90;;;;;;4994765;28;20271;-70
2023/08/01 00:26:23;;;;;;;2.63;2.43;;;18.70;99.90;;;;;;4998137;28;20280;-71
2023/08/01 00:28:49;;;;;;;4.57;3.13;;;18.70;99.90;;;;;;4999262;28;20812;-71
2023/08/01 00:31:15;;;;;;;8.10;3.33;;;18.60;99.90;;;;;;5000474;28;20234;-73
2023/08/01 00:33:40;;;;;;;6.47;3.20;;;18.50;99.90;;;;;;4994493;28;20486;-71
2023/08/01 00:36:09;;;;;;;4.00;3.17;;;18.60;99.90;;;;;;5015009;28;20349;-71
2023/08/01 00:38:36;;;;;;;4.03;3.23;;;18.60;99.90;;;;;;4997822;28;20233;-72
2023/08/01 00:41:03;;;;;;;3.37;2.80;;;18.60;99.90;;;;;;4980928;28;20466;-72
2023/08/01 00:43:28;;;;;;;4.57;3.43;;;18.60;99.90;;;;;;4994876;28;20451;-72
2023/08/01 00:46:00;;;;;;;5.70;3.50;;;18.50;99.90;;;;;;4996298;28;20224;-71
2023/08/01 00:48:27;;;;;;;4.50;3.13;;;18.50;99.90;;;;;;4998944;28;20804;-71
2023/08/01 00:50:53;;;;;;;4.93;4.10;;;18.60;99.90;;;;;;4999424;28;20546;-71
2023/08/01 00:53:19;;;;;;;5.80;3.43;;;18.70;99.90;;;;;;4994533;28;20955;-71
2023/08/01 00:55:45;;;;;;;5.80;3.23;;;18.60;99.90;;;;;;4997561;28;20230;-72
2023/08/01 00:58:10;;;;;;;4.30;3.37;;;18.60;99.90;;;;;;5013607;28;21716;-71
2023/08/01 01:00:36;;;;;;;4.70;2.60;;;18.60;99.90;;;;;;5015021;28;20237;-71
2023/08/01 01:03:02;;;;;;;5.10;3.30;;;18.60;99.90;;;;;;4992447;28;20274;-71
2023/08/01 01:05:33;;;;;;;4.40;3.60;;;18.60;99.90;;;;;;5014980;28;20319;-71
2023/08/01 01:07:59;;;;;;;3.70;3.13;;;18.50;99.90;;;;;;4999682;28;20224;-71
2023/08/01 01:10:25;;;;;;;7.27;3.87;;;18.60;99.90;;;;;;5013262;28;20507;-71
2023/08/01 01:12:50;;;;;;;4.30;2.80;;;18.60;99.90;;;;;;4981554;28;20467;-72
2023/08/01 01:15:16;;;;;;;4.30;3.23;;;18.60;99.90;;;;;;4996111;28;20931;-72
2023/08/01 01:17:42;;;;;;;5.20;3.20;;;18.50;99.90;;;;;;5000471;28;20224;-71
2023/08/01 01:20:08;;;;;;;4.23;3.20;;;18.50;99.90;;;;;;4997805;28;20366;-71
2023/08/01 01:22:34;;;;;;;5.67;3.60;;;18.40;99.90;;;;;;4996604;28;20217;-71
2023/08/01 01:25:01;;;;;;;5.43;3.57;;;18.30;99.90;;;;;;4994939;28;20927;-71
2023/08/01 01:27:28;;;;;;;3.63;3.10;;;18.30;99.90;;;;;;4998984;28;20595;-71
2023/08/01 01:29:55;;;;;;;4.70;3.60;;;18.20;99.90;;;;;;4997033;28;20460;-71
2023/08/01 01:32:21;;;;;;;4.07;3.30;;;18.40;99.90;;;;;;4995116;28;20501;-71
2023/08/01 01:34:47;;;;;;;3.60;3.30;;;18.50;99.90;;;;;;4996078;28;20467;-71
2023/08/01 01:37:13;;;;;;;5.23;3.63;;;18.60;99.90;;;;;;4997037;28;20570;-72
2023/08/01 01:39:38;;;;;;;4.63;3.20;;;18.60;99.90;;;;;;5012668;28;20241;-71
2023/08/01 01:42:05;;;;;;;3.70;3.07;;;18.50;99.90;;;;;;4995996;28;20231;-71
2023/08/01 01:44:31;;;;;;;3.40;3.00;;;18.40;99.90;;;;;;4975441;28;20691;-71
2023/08/01 01:46:56;;;;;;;5.50;2.97;;;18.50;99.90;;;;;;5013737;28;20498;-71
2023/08/01 01:49:22;;;;;;;6.50;3.00;;;18.50;99.90;;;;;;4997491;28;20467;-71
2023/08/01 01:51:48;;;;;;;4.30;2.97;;;18.30;99.90;;;;;;4997373;28;20221;-71
2023/08/01 01:54:13;;;;;;;4.67;2.70;;;18.40;99.90;;;;;;4993642;28;20283;-71
2023/08/01 01:56:39;;;;;;;2.67;2.47;;;18.20;99.90;;;;;;4996257;28;20228;-70
2023/08/01 01:59:05;;;;;;;5.30;3.07;;;18.20;99.90;;;;;;4998235;28;20232;-70
2023/08/01 02:01:30;;;;;;;6.03;2.57;;;18.10;99.90;;;;;;4999971;28;20225;-71
2023/08/01 02:03:56;;;;;;;2.53;2.30;;;18.20;99.90;;;;;;4991175;28;20225;-71
2023/08/01 02:06:21;;;;;;;3.07;1.80;;;18.20;99.90;;;;;;5014949;28;20225;-71
2023/08/01 02:08:47;;;;;;;2.10;1.90;;;18.30;99.90;;;;;;4999607;28;20228;-71
2023/08/01 02:11:13;;;;;;;2.13;1.73;;;18.20;99.90;;;;;;4996937;28;20231;-71
2023/08/01 02:13:39;;;;;;;2.37;1.63;;;18.10;99.90;;;;;;4993635;28;20239;-71
2023/08/01 02:16:04;;;;;;;2.70;1.77;;;18.10;99.90;;;;;;4997010;28;20221;-72
2023/08/01 02:18:30;;;;;;;2.40;1.67;;;18.10;99.90;;;;;;4984443;28;21570;-72
2023/08/01 02:20:56;;;;;;;3.00;2.07;;;18.10;99.90;;;;;;4977474;28;20922;-72
2023/08/01 02:23:21;;;;;;;2.17;1.93;;;18.30;99.90;;;;;;4973196;28;20226;-72
2023/08/01 02:25:47;;;;;;;2.30;1.80;;;18.40;99.90;;;;;;4976967;28;20217;-72
2023/08/01 02:28:13;;;;;;;1.40;1.30;;;18.40;99.90;;;;;;4975626;28;20225;-72
2023/08/01 02:30:38;;;;;;;2.20;1.70;;;18.40;99.90;;;;;;4976966;28;20213;-70
2023/08/01 02:33:04;;;;;;;2.70;1.70;;;18.30;99.90;;;;;;4992020;28;20259;-71
2023/08/01 02:35:30;;;;;;;2.40;1.60;;;18.30;99.90;;;;;;4977913;28;20236;-70
2023/08/01 02:37:56;;;;;;;5.63;2.53;;;18.20;99.90;;;;;;4995123;28;20217;-70
2023/08/01 02:40:22;;;;;;;2.10;1.50;;;18.10;99.90;;;;;;4997174;28;20962;-71
2023/08/01 02:42:48;;;;;;;1.87;1.77;;;18.20;99.90;;;;;;4998373;28;20267;-71
2023/08/01 02:45:14;;;;;;;2.27;1.77;;;18.10;99.90;;;;;;5001019;28;20503;-71
2023/08/01 02:47:40;;;;;;;3.73;2.27;;;18.10;99.90;;;;;;5001011;28;21091;-71
2023/08/01 02:50:06;;;;;;;3.13;1.80;;;18.10;99.90;;;;;;5000275;28;20269;-71
2023/08/01 02:52:32;;;;;;;1.50;1.40;;;18.10;99.90;;;;;;4985827;28;20291;-71
2023/08/01 02:54:57;;;;;;;2.20;1.80;;;18.10;99.90;;;;;;5001759;28;20558;-71
2023/08/01 02:57:24;;;;;;;1.60;1.50;;;18.10;99.90;;;;;;5002099;28;20336;-70
2023/08/01 02:59:50;;;;;;;1.80;1.60;;;18.10;99.90;;;;;;5017973;28;20239;-71
2023/08/01 03:02:15;;;;;;;3.03;2.10;;;18.10;99.90;;;;;;5017275;28;20827;-71
2023/08/01 03:04:41;;;;;;;3.30;2.43;;;18.10;99.90;;;;;;5004101;28;20298;-70
2023/08/01 03:07:07;;;;;;;2.07;1.90;;;18.20;99.90;;;;;;5000936;28;20224;-71
2023/08/01 03:09:33;;;;;;;2.10;1.90;;;18.10;99.90;;;;;;5003024;28;20247;-71
2023/08/01 03:11:59;;;;;;;3.40;2.47;;;18.10;99.90;;;;;;5001171;28;20233;-70
2023/08/01 03:14:24;;;;;;;1.97;1.77;;;18.10;99.90;;;;;;5020720;28;20951;-71
2023/08/01 03:16:50;;;;;;;2.60;2.40;;;18.10;99.90;;;;;;5003198;28;20353;-70
2023/08/01 03:19:15;;;;;;;3.00;2.47;;;18.00;99.90;;;;;;4985234;28;20745;-70
2023/08/01 03:21:41;;;;;;;1.90;1.80;;;18.00;99.90;;;;;;5003404;28;20213;-71
2023/08/01 03:24:08;;;;;;;3.10;2.47;;;18.10;99.90;;;;;;5019548;28;20967;-71
2023/08/01 03:26:35;;;;;;;3.60;2.60;;;18.10;99.90;;;;;;5003105;28;20221;-71
2023/08/01 03:29:01;;;;;;;4.37;2.30;;;18.00;99.90;;;;;;5003520;28;20463;-71
2023/08/01 03:31:28;;;;;;;2.70;2.03;;;18.10;99.90;;;;;;5002163;28;20609;-71
2023/08/01 03:33:53;;;;;;;2.50;2.30;;;18.00;99.90;;;;;;5005942;28;20755;-70
2023/08/01 03:36:20;;;;;;;2.57;2.10;;;18.00;99.90;;;;;;5002312;28;20462;-71
2023/08/01 03:38:45;;;;;;;4.93;1.90;;;17.90;99.90;;;;;;5020418;28;20245;-71
2023/08/01 03:41:11;;;;;;;3.00;2.40;;;18.00;99.90;;;;;;5000749;28;20499;-70
2023/08/01 03:43:37;;;;;;;2.80;1.87;;;17.90;99.90;;;;;;5003594;28;20279;-71
2023/08/01 03:46:03;;;;;;;3.50;2.47;;;17.90;99.90;;;;;;5018836;28;20261;-70
2023/08/01 03:48:28;;;;;;;2.60;1.87;;;18.00;99.90;;;;;;5003153;28;20271;-72
2023/08/01 03:50:54;;;;;;;2.60;2.40;;;18.00;99.90;;;;;;5003923;28;20402;-71
2023/08/01 03:53:19;;;;;;;3.53;1.90;;;18.10;99.90;;;;;;5004147;28;20217;-71
2023/08/01 03:55:48;;;;;;;4.27;1.77;;;18.00;99.90;;;;;;5001471;28;20217;-71
2023/08/01 03:58:14;;;;;;;2.43;1.90;;;18.10;99.90;;;;;;4985518;28;20603;-71
2023/08/01 04:00:39;;;;;;;3.20;1.93;;;18.10;99.90;;;;;;5002001;28;20571;-71
2023/08/01 04:03:05;;;;;;;7.40;2.43;;;18.10;99.90;;;;;;4991762;28;20346;-72
2023/08/01 04:05:30;;;;;;;3.33;2.10;;;18.10;99.90;;;;;;5001706;28;20220;-71
2023/08/01 04:07:57;;;;;;;3.30;2.57;;;18.20;99.90;;;;;;5002994;28;20235;-71
2023/08/01 04:10:23;;;;;;;3.40;2.80;;;18.20;99.90;;;;;;5002698;28;20224;-71
2023/08/01 04:12:49;;;;;;;2.70;1.70;;;18.20;99.90;;;;;;5003112;28;20536;-71
2023/08/01 04:15:14;;;;;;;4.43;1.80;;;18.10;99.90;;;;;;5000925;28;20232;-71
2023/08/01 04:17:40;;;;;;;3.30;2.47;;;18.00;99.90;;;;;;4987122;28;20777;-71
2023/08/01 04:20:06;;;;;;;2.20;2.03;;;18.10;99.90;;;;;;4999480;28;20250;-71
2023/08/01 04:22:32;;;;;;;2.73;1.90;;;18.10;99.90;;;;;;5004637;28;20252;-71
2023/08/01 04:24:58;;;;;;;2.83;1.90;;;18.10;99.90;;;;;;5003394;28;20478;-71
2023/08/01 04:27:23;;;;;;;1.67;1.50;;;18.00;99.90;;;;;;5003399;28;20229;-71
2023/08/01 04:29:49;;;;;;;1.63;1.53;;;18.10;99.90;;;;;;5003636;28;20766;-71
2023/08/01 04:32:15;;;;;;;1.50;1.40;;;18.00;99.90;;;;;;5001440;28;20228;-71
2023/08/01 04:34:41;;;;;;;2.30;2.00;;;18.00;99.90;;;;;;4987809;28;20237;-71
2023/08/01 04:37:07;;;;;;;3.47;1.67;;;17.90;99.90;;;;;;4999290;28;20231;-71
2023/08/01 04:39:33;;;;;;;2.13;1.40;;;18.00;99.90;;;;;;5018947;28;20467;-71
2023/08/01 04:41:59;;;;;;;2.33;1.43;;;17.90;99.90;;;;;;5001584;28;20910;-71
2023/08/01 04:44:25;;;;;;;1.80;1.50;;;17.90;99.90;;;;;;5016977;28;20455;-71
2023/08/01 04:46:50;;;;;;;2.13;1.50;;;18.00;99.90;;;;;;5003811;28;20343;-71
2023/08/01 04:49:16;;;;;;;1.40;1.30;;;18.10;99.90;;;;;;5001231;28;20225;-71
2023/08/01 04:51:42;;;;;;;1.20;1.10;;;18.10;99.90;;;;;;5004473;28;20221;-72
2023/08/01 04:54:07;;;;;;;2.40;1.43;;;18.00;99.90;;;;;;5000682;28;20220;-72
2023/08/01 04:56:33;;;;;;;1.43;1.33;;;18.10;99.90;;;;;;5001833;28;20224;-70
2023/08/01 04:58:59;;;;;;;1.63;1.53;;;18.10;99.90;;;;;;5002228;28;20280;-71
2023/08/01 05:01:24;;;;;;;1.50;1.37;;;18.00;99.90;;;;;;5000824;28;20251;-72
2023/08/01 05:03:50;;;;;;;2.07;1.80;;;18.00;99.90;;;;;;5000448;28;20347;-71
2023/08/01 05:06:16;;;;;;;2.20;1.80;;;18.00;99.90;;;;;;4999297;28;20234;-71
2023/08/01 05:08:41;;;;;;;1.60;1.30;;;17.90;99.90;;;;;;5002052;28;20257;-72
2023/08/01 05:11:07;;;;;;;4.20;1.27;;;17.90;99.90;;;;;;4998418;28;20250;-72
2023/08/01 05:13:32;;;;;;;2.53;1.40;;;17.90;99.90;;;;;;5002120;28;20345;-71
2023/08/01 05:15:58;;;;;;;1.50;1.40;;;17.90;99.90;;;;;;5019175;28;20261;-71
2023/08/01 05:18:24;;;;;;;1.30;1.20;;;17.80;99.90;;;;;;4999195;28;20212;-71
2023/08/01 05:20:49;;;;;;;1.83;1.03;;;17.80;99.90;;;;;;5000747;28;20805;-72
2023/08/01 05:23:15;;;;;;;1.27;1.00;;;18.00;99.90;;;;;;5001037;28;20240;-71
2023/08/01 05:25:41;;;;;;;1.30;1.20;;;17.90;99.90;;;;;;5001434;28;20374;-71
2023/08/01 05:28:07;;;;;;;1.20;1.10;;;17.90;99.90;;;;;;4998073;28;20228;-71
2023/08/01 05:30:32;;;;;;;1.43;1.10;;;17.80;99.90;;;;;;5003757;28;20233;-73
2023/08/01 05:32:58;;;;;;;1.83;1.10;;;17.80;99.90;;;;;;5001869;28;20237;-71
2023/08/01 05:35:24;;;;;;;1.20;0.97;;;17.70;99.90;;;;;;5002236;28;20220;-72
2023/08/01 05:37:49;;;;;;;1.70;0.90;;;17.80;99.90;;;;;;5002957;28;20233;-73
2023/08/01 05:40:15;;;;;;;1.37;1.00;;;17.80;99.90;;;;;;5015171;28;20794;-73
2023/08/01 05:42:41;;;;;;;1.63;1.37;;;17.70;99.90;;;;;;5016737;28;20228;-71
2023/08/01 05:45:07;;;;;;;1.17;1.07;;;17.70;99.90;;;;;;4999061;28;20228;-73
2023/08/01 05:47:32;;;;;;;3.00;1.20;;;17.90;99.90;;;;;;5002426;28;20225;-74
2023/08/01 05:49:58;;;;;;;2.87;1.20;;;17.80;99.90;;;;;;5017837;28;20476;-72
2023/08/01 05:52:24;;;;;;;1.30;1.10;;;17.70;99.90;;;;;;4991965;28;20311;-72
2023/08/01 05:54:49;;;;;;;1.13;1.00;;;17.60;99.90;;;;;;5000746;28;20228;-73
2023/08/01 05:57:15;;;;;;;1.13;1.03;;;17.60;99.90;;;;;;4997424;28;20228;-73
2023/08/01 05:59:41;;;;;;;1.23;0.87;;;17.70;99.90;;;;;;5003024;28;20310;-72
2023/08/01 06:02:06;;;;;;;1.70;1.60;;;17.70;99.90;;;;;;5015453;28;20232;-74
2023/08/01 06:04:32;;;;;;;1.83;1.50;;;17.80;99.90;;;;;;5001098;28;20375;-73
2023/08/01 06:06:58;;;;;;;1.47;1.33;;;17.80;99.90;;;;;;5001103;28;20231;-73
2023/08/01 06:09:24;;;;;;;1.60;1.40;;;17.70;99.90;;;;;;5003217;28;20802;-73
2023/08/01 06:11:50;;;;;;;1.73;1.40;;;17.70;99.90;;;;;;5002314;28;20467;-73
2023/08/01 06:14:17;;;;;;;1.30;1.20;;;17.70;99.90;;;;;;5000983;28;20493;-73
2023/08/01 06:16:42;;;;;;;2.80;1.77;;;17.70;99.90;;;;;;5001826;28;20228;-74
2023/08/01 06:19:08;;;;;;;2.40;1.60;;;17.70;99.90;;;;;;5000543;28;20514;-73
2023/08/01 06:21:34;;;;;;;1.50;1.33;;;17.60;99.90;;;;;;4999908;28;20251;-73
2023/08/01 06:24:00;;;;;;;2.27;1.77;;;17.70;99.90;;;;;;5000983;28;20274;-72
2023/08/01 06:26:25;;;;;;;1.50;1.40;;;17.70;99.90;;;;;;4999645;28;20224;-73
2023/08/01 06:28:53;;;;;;;3.30;1.40;;;17.70;99.90;;;;;;4998709;28;20365;-73
2023/08/01 06:31:20;;;;;;;2.70;1.27;;;17.80;99.90;;;;;;4997869;28;20213;-73
2023/08/01 06:33:46;;;;;;;1.30;1.17;;;17.90;99.90;;;;;;4998560;28;20472;-73
2023/08/01 06:36:12;;;;;;;1.00;1.00;;;18.00;99.90;;;;;;5013769;28;20591;-73
2023/08/01 06:38:38;;;;;;;1.97;1.10;;;18.10;99.90;;;;;;4981811;28;20237;-72
2023/08/01 06:41:04;;;;;;;0.60;0.60;;;18.10;99.90;;;;;;4996932;28;20580;-73
2023/08/01 06:43:30;;;;;;;0.60;0.40;;;17.90;99.90;;;;;;4981310;28;20604;-73
2023/08/01 06:45:55;;;;;;;0.57;0.57;;;17.70;99.90;;;;;;5014753;28;20807;-73
2023/08/01 06:48:21;;;;;;;0.60;0.60;;;17.60;99.90;;;;;;4997382;28;20229;-73
2023/08/01 06:50:47;;;;;;;1.03;0.57;;;17.60;99.90;;;;;;4999332;28;20221;-74
2023/08/01 06:53:12;;;;;;;1.00;0.80;;;17.50;99.90;;;;;;4997639;28;20362;-74
2023/08/01 06:55:38;;;;;;;0.50;0.40;;;17.50;99.90;;;;;;4997747;28;20217;-74
2023/08/01 06:58:05;;;;;;;0.83;0.50;;;17.60;99.90;;;;;;4984058;28;20876;-73
2023/08/01 07:00:31;;;;;;;0.50;0.43;;;17.60;99.90;;;;;;4997527;28;20248;-73
2023/08/01 07:02:57;;;;;;;0.90;0.40;;;17.60;99.90;;;;;;4999129;28;20471;-73
2023/08/01 07:05:23;;;;;;;0.50;0.40;;;17.70;99.90;;;;;;4998728;28;20474;-74
2023/08/01 07:07:49;;;;;;;0.67;0.60;;;17.70;99.90;;;;;;5013907;28;20229;-75
2023/08/01 07:10:15;;;;;;;0.70;0.53;;;17.70;99.90;;;;;;4994241;28;20290;-73
2023/08/01 07:12:40;;;;;;;1.23;0.50;;;17.70;99.90;;;;;;5003935;28;20226;-73
2023/08/01 07:15:07;;;;;;;1.23;0.40;;;17.80;99.90;;;;;;4960163;28;20218;-72
2023/08/01 07:17:33;;;;;;;0.40;0.30;;;17.80;99.90;;;;;;4977826;28;20272;-73
2023/08/01 07:19:59;;;;;;;0.50;0.40;;;17.80;99.90;;;;;;4993322;28;21031;-73
2023/08/01 07:22:24;;;;;;;0.50;0.43;;;17.80;99.90;;;;;;5013206;28;20236;-74
2023/08/01 07:24:54;;;;;;;0.50;0.40;;;17.90;99.90;;;;;;4998104;28;20220;-73
2023/08/01 07:27:21;;;;;;;1.00;1.00;;;17.90;99.90;;;;;;4998203;28;20232;-73
2023/08/01 07:29:46;;;;;;;2.30;1.43;;;17.80;99.90;;;;;;5002242;28;20463;-74
2023/08/01 07:32:12;;;;;;;0.60;0.60;;;17.80;99.90;;;;;;4983052;28;21740;-73
2023/08/01 07:34:38;;;;;;;0.50;0.50;;;17.80;99.90;;;;;;5001170;28;20229;-73
2023/08/01 07:37:04;;;;;;;0.50;0.50;;;17.90;99.90;;;;;;4985588;28;20233;-73
2023/08/01 07:39:29;;;;;;;0.60;0.57;;;17.90;99.90;;;;;;5001625;28;20225;-73
2023/08/01 07:41:56;;;;;;;3.67;0.70;;;18.10;99.90;;;;;;5001818;28;20263;-73
2023/08/01 07:44:21;;;;;;;0.83;0.80;;;18.20;99.90;;;;;;5000331;28;20747;-72
2023/08/01 07:46:47;;;;;;;0.90;0.70;;;18.30;99.90;;;;;;4999701;28;20593;-73
2023/08/01 07:49:13;;;;;;;0.77;0.77;;;18.40;99.90;;;;;;4984849;28;20231;-72
2023/08/01 07:51:38;;;;;;;1.30;0.63;;;18.50;99.90;;;;;;5002946;28;20263;-73
2023/08/01 07:54:04;;;;;;;0.70;0.53;;;18.60;99.90;;;;;;5000138;28;20244;-73
2023/08/01 07:56:30;;;;;;;0.50;0.50;;;18.60;99.90;;;;;;5000749;28;20920;-73
2023/08/01 07:58:55;;;;;;;1.50;0.70;;;18.70;99.90;;;;;;5018662;28;20710;-73
2023/08/01 08:01:21;;;;;;;0.60;0.60;;;18.70;99.90;;;;;;4999110;28;20224;-73
2023/08/01 08:03:47;;;;;;;0.93;0.83;;;18.80;99.90;;;;;;5001432;28;20227;-73
2023/08/01 08:06:12;;;;;;;1.43;0.80;;;18.90;99.90;;;;;;4999614;28;20220;-73
2023/08/01 08:08:38;;;;;;;0.77;0.70;;;18.90;99.90;;;;;;5017018;28;20229;-73
2023/08/01 08:11:04;;;;;;;1.53;1.00;;;19.00;99.90;;;;;;4986253;28;20259;-73
2023/08/01 08:13:30;;;;;;;1.53;1.00;;;19.00;99.90;;;;;;5001868;28;20220;-73
2023/08/01 08:15:56;;;;;;;1.10;1.00;;;19.10;99.90;;;;;;4999025;28;20320;-73
2023/08/01 08:18:23;;;;;;;0.97;0.93;;;19.10;99.90;;;;;;4999342;28;20217;-73
2023/08/01 08:20:48;;;;;;;0.80;0.80;;;19.10;99.90;;;;;;5019170;28;20494;-73
2023/08/01 08:23:14;;;;;;;0.90;0.90;;;19.20;99.90;;;;;;4999299;28;20490;-73
2023/08/01 08:25:47;;;;;;;1.53;0.87;;;19.30;99.90;;;;;;5001078;28;20221;-73
2023/08/01 08:28:13;;;;;;;0.80;0.80;;;19.40;99.90;;;;;;4998037;28;20225;-73
2023/08/01 08:30:39;;;;;;;1.30;1.13;;;19.40;99.90;;;;;;5001486;28;20458;-73
2023/08/01 08:33:06;;;;;;;1.23;1.13;;;19.40;99.90;;;;;;5018258;28;20474;-73
2023/08/01 08:35:35;;;;;;;1.03;1.00;;;19.50;99.90;;;;;;4999628;28;21094;-73
2023/08/01 08:38:03;;;;;;;1.10;1.00;;;19.50;99.90;;;;;;4999306;28;20464;-73
2023/08/01 08:40:31;;;;;;;1.13;1.13;;;19.60;99.90;;;;;;4997881;28;20494;-73
2023/08/01 08:43:01;;;;;;;1.47;1.37;;;19.60;99.90;;;;;;4997864;28;20488;-73
2023/08/01 08:45:32;;;;;;;1.30;1.20;;;19.60;99.90;;;;;;5013048;28;20478;-73
2023/08/01 08:48:07;;;;;;;2.60;1.63;;;19.70;99.90;;;;;;4998380;28;20479;-73
2023/08/01 08:50:35;;;;;;;1.27;1.17;;;19.70;99.90;;;;;;4996618;28;21273;-74
2023/08/01 08:53:01;;;;;;;2.20;1.60;;;19.70;99.90;;;;;;5014508;28;21070;-74
2023/08/01 08:55:28;;;;;;;4.10;1.90;;;19.70;99.90;;;;;;4964069;28;20502;-73
2023/08/01 08:57:55;;;;;;;1.83;1.60;;;19.70;99.90;;;;;;5013030;28;20480;-72
2023/08/01 09:00:22;;;;;;;1.50;1.33;;;19.80;99.90;;;;;;4995768;28;20606;-73
2023/08/01 09:02:48;;;;;;;3.07;1.50;;;19.90;99.90;;;;;;5001304;28;21222;-72
2023/08/01 09:05:13;;;;;;;2.20;1.50;;;20.00;99.90;;;;;;4998262;28;20472;-73
2023/08/01 09:07:47;;;;;;;1.97;1.23;;;20.00;99.90;;;;;;4996228;28;20229;-73
2023/08/01 09:10:13;;;;;;;2.90;1.33;;;19.90;99.90;;;;;;4996546;28;20223;-73
2023/08/01 09:12:38;;;;;;;3.20;1.20;;;19.90;99.90;;;;;;4996568;28;20463;-72
2023/08/01 09:15:05;;;;;;;1.80;1.40;;;20.00;99.90;;;;;;4997131;28;20789;-73
2023/08/01 09:17:30;;;;;;;2.10;1.50;;;20.10;99.90;;;;;;4978863;28;21155;-73
2023/08/01 09:20:07;;;;;;;1.20;1.10;;;20.20;99.90;;;;;;4977842;28;20477;-72
2023/08/01 09:22:44;;;;;;;3.47;1.50;;;20.20;99.90;;;;;;4996793;28;20335;-72
2023/08/01 09:25:09;;;;;;;1.67;1.57;;;20.30;99.90;;;;;;4980066;28;20480;-73
2023/08/01 09:27:35;;;;;;;1.60;1.50;;;20.20;99.90;;;;;;4977950;28;20508;-73
2023/08/01 09:30:13;;;;;;;1.80;1.40;;;20.30;99.90;;;;;;4996431;28;20421;-72
2023/08/01 09:32:39;;;;;;;1.60;1.50;;;20.30;99.90;;;;;;4990690;28;20242;-73
2023/08/01 09:35:05;;;;;;;1.67;1.50;;;20.30;99.90;;;;;;4978756;28;20469;-72
2023/08/01 09:37:59;;;;;;;3.13;2.03;;;20.50;99.90;;;;;;4991802;28;20479;-73
2023/08/01 09:40:25;;;;;;;1.70;1.60;;;20.50;99.90;;;;;;4976766;28;20546;-73
2023/08/01 09:42:51;;;;;;;1.70;1.60;;;20.40;99.90;;;;;;4994211;28;20472;-73
2023/08/01 09:45:17;;;;;;;1.37;1.20;;;20.60;99.90;;;;;;4997337;28;20236;-73
2023/08/01 09:47:45;;;;;;;1.50;1.40;;;20.70;99.90;;;;;;5015608;28;20255;-72
2023/08/01 09:50:13;;;;;;;1.27;1.17;;;20.70;99.90;;;;;;4995699;28;20467;-73
2023/08/01 09:52:38;;;;;;;1.57;1.47;;;20.80;99.90;;;;;;4981452;28;20573;-72
2023/08/01 09:55:05;;;;;;;1.70;1.60;;;21.00;99.90;;;;;;4997476;28;21521;-72
2023/08/01 09:57:31;;;;;;;1.60;1.50;;;21.10;99.90;;;;;;5013177;28;20221;-72
2023/08/01 09:59:58;;;;;;;1.47;1.37;;;21.00;99.90;;;;;;4996287;28;20578;-73
2023/08/01 10:02:26;;;;;;;1.70;1.60;;;21.20;99.90;;;;;;4993117;28;20503;-72
2023/08/01 10:04:57;;;;;;;2.30;1.73;;;21.20;99.90;;;;;;4999287;28;20922;-72
2023/08/01 10:07:26;;;;;;;1.60;1.50;;;21.10;99.90;;;;;;4982642;28;21153;-72
2023/08/01 10:09:55;;;;;;;2.33;1.70;;;21.00;99.90;;;;;;5001665;28;20485;-73
2023/08/01 10:12:24;;;;;;;1.67;1.57;;;21.10;99.90;;;;;;4997146;28;20518;-73
2023/08/01 10:14:50;;;;;;;1.30;1.20;;;21.10;99.90;;;;;;4994604;28;20518;-73
2023/08/01 10:17:16;;;;;;;1.50;1.40;;;21.20;99.90;;;;;;4995430;28;20471;-73
2023/08/01 10:19:42;;;;;;;2.43;1.70;;;21.30;99.90;;;;;;4997032;28;20485;-73
2023/08/01 10:22:09;;;;;;;5.07;1.90;;;21.40;99.90;;;;;;4996474;28;20562;-73
2023/08/01 10:24:36;;;;;;;1.30;1.20;;;21.50;99.90;;;;;;4979325;28;20251;-73
2023/08/01 10:27:19;;;;;;;1.80;1.70;;;21.60;99.90;;;;;;5013639;28;20483;-73
2023/08/01 10:29:45;;;;;;;1.93;1.40;;;21.60;99.90;;;;;;4988363;28;20459;-73
2023/08/01 10:32:11;;;;;;;1.40;1.30;;;21.70;99.90;;;;;;4984742;28;20472;-73
2023/08/01 10:34:37;;;;;;;1.67;1.30;;;21.60;99.90;;;;;;4999086;28;20851;-73
2023/08/01 10:37:03;;;;;;;1.80;1.70;;;21.70;99.90;;;;;;4995499;28;20335;-72
2023/08/01 10:39:29;;;;;;;3.73;2.20;;;21.90;99.90;;;;;;4994098;28;20939;-73
2023/08/01 10:42:02;;;;;;;1.30;1.23;;;21.80;99.90;;;;;;4996456;28;21176;-73
2023/08/01 10:44:30;;;;;;;1.87;1.70;;;21.70;99.90;;;;;;4993633;28;20236;-72
2023/08/01 10:47:04;;;;;;;1.60;1.47;;;21.70;99.90;;;;;;4995476;28;20467;-72
2023/08/01 10:49:37;;;;;;;1.73;1.13;;;21.60;99.90;;;;;;4996259;28;20463;-73
2023/08/01 10:52:27;;;;;;;2.90;1.63;;;21.60;99.90;;;;;;5012180;28;21202;-73
2023/08/01 10:55:00;;;;;;;1.50;1.40;;;21.70;99.90;;;;;;4967216;28;21100;-73
2023/08/01 10:57:30;;;;;;;2.60;2.40;;;21.80;99.90;;;;;;4994033;28;20572;-73
2023/08/01 10:59:57;;;;;;;4.73;1.33;;;21.90;99.90;;;;;;4961249;28;20596;-72
2023/08/01 11:02:27;;;;;;;3.03;2.07;;;21.90;99.90;;;;;;5012346;28;20550;-73
2023/08/01 11:04:59;;;;;;;1.53;1.43;;;21.90;99.90;;;;;;4996388;28;20472;-73
2023/08/01 11:07:25;;;;;;;5.43;1.40;;;22.00;99.90;;;;;;4997252;28;21116;-74
2023/08/01 11:10:06;;;;;;;2.03;1.80;;;22.00;99.90;;;;;;4999001;28;20466;-73
2023/08/01 11:12:39;;;;;;;5.00;1.57;;;22.10;99.90;;;;;;4977735;28;20232;-74
2023/08/01 11:15:10;;;;;;;2.87;1.50;;;22.10;99.90;;;;;;4997657;28;20467;-73
2023/08/01 11:17:37;;;;;;;1.50;1.40;;;22.40;99.90;;;;;;5014729;28;20458;-73
2023/08/01 11:20:08;;;;;;;1.60;1.50;;;22.50;99.90;;;;;;5000447;28;20471;-73
2023/08/01 11:22:34;;;;;;;1.70;1.60;;;22.60;99.90;;;;;;4984363;28;20475;-73
2023/08/01 11:25:00;;;;;;;2.00;1.90;;;22.60;99.90;;;;;;4981576;28;21491;-73
2023/08/01 11:27:26;;;;;;;1.40;1.30;;;22.50;99.90;;;;;;4993186;28;20994;-73
2023/08/01 11:29:56;;;;;;;1.93;1.73;;;22.30;99.90;;;;;;5002389;28;20531;-73
2023/08/01 11:32:32;;;;;;;2.10;1.60;;;22.40;99.90;;;;;;5016379;28;20228;-73
2023/08/01 11:34:57;;;;;;;3.70;1.60;;;22.50;99.90;;;;;;5001641;28;20470;-73
2023/08/01 11:37:26;;;;;;;2.50;2.13;;;22.50;99.90;;;;;;5003220;28;20484;-73
2023/08/01 11:39:52;;;;;;;2.27;1.53;;;22.40;99.90;;;;;;5003016;28;20239;-73
2023/08/01 11:42:18;;;;;;;1.70;1.53;;;22.30;99.90;;;;;;5001742;28;20494;-72
2023/08/01 11:44:44;;;;;;;1.80;1.50;;;22.40;99.90;;;;;;5000067;28;20301;-73
2023/08/01 11:47:14;;;;;;;2.37;1.67;;;22.50;99.90;;;;;;5017006;28;20259;-73
2023/08/01 11:49:45;;;;;;;1.60;1.47;;;22.70;99.90;;;;;;5002060;28;20581;-73
2023/08/01 11:52:21;;;;;;;3.20;1.40;;;22.80;99.90;;;;;;5002999;28;20506;-73
2023/08/01 11:54:46;;;;;;;2.20;1.30;;;22.70;99.90;;;;;;5000571;28;20545;-73
2023/08/01 11:57:12;;;;;;;2.47;1.90;;;22.80;99.90;;;;;;5002640;28;20475;-73
2023/08/01 11:59:54;;;;;;;2.20;1.97;;;22.70;99.90;;;;;;4999736;28;20232;-73
2023/08/01 12:02:27;;;;;;;3.13;1.83;;;22.70;99.90;;;;;;4997155;28;20263;-73
2023/08/01 12:04:54;;;;;;;2.10;1.77;;;22.70;99.90;;;;;;4999437;28;20470;-72
2023/08/01 12:07:20;;;;;;;1.87;1.40;;;22.80;99.90;;;;;;4981192;28;20482;-73
2023/08/01 12:09:58;;;;;;;3.90;1.43;;;22.90;99.90;;;;;;5001816;28;20470;-73
2023/08/01 12:12:27;;;;;;;1.67;1.57;;;23.10;99.90;;;;;;4997419;28;20987;-72
2023/08/01 12:14:54;;;;;;;2.03;1.63;;;23.20;99.90;;;;;;4999561;28;20470;-73
2023/08/01 12:17:20;;;;;;;2.40;2.20;;;23.30;99.90;;;;;;4993920;28;20471;-73
2023/08/01 12:19:46;;;;;;;1.60;1.50;;;23.40;99.90;;;;;;5000671;28;20869;-73
2023/08/01 12:22:12;;;;;;;2.73;1.60;;;23.40;99.90;;;;;;5014799;28;22022;-73
2023/08/01 12:24:38;;;;;;;1.23;1.13;;;23.70;99.90;;;;;;4997752;28;21771;-73
2023/08/01 12:27:10;;;;;;;1.33;1.23;;;23.70;99.90;;;;;;4998203;28;20471;-73
2023/08/01 12:29:36;;;;;;;1.70;1.60;;;23.60;99.90;;;;;;5011901;28;20229;-73
2023/08/01 12:32:03;;;;;;;1.87;1.60;;;23.60;99.90;;;;;;4995594;28;20588;-73
2023/08/01 12:34:29;;;;;;;1.47;1.37;;;23.60;99.90;;;;;;4982749;28;20279;-73
2023/08/01 12:36:54;;;;;;;1.80;1.70;;;23.70;99.90;;;;;;5001723;28;20468;-73
2023/08/01 12:39:20;;;;;;;2.63;1.30;;;23.80;99.90;;;;;;4998490;28;21079;-72
2023/08/01 12:41:46;;;;;;;1.60;1.50;;;23.80;99.90;;;;;;5000608;28;20228;-73
2023/08/01 12:44:15;;;;;;;2.50;2.30;;;23.90;99.90;;;;;;4998462;28;20282;-73
2023/08/01 12:46:41;;;;;;;6.80;1.70;;;23.90;99.90;;;;;;5013070;28;20220;-73